sensor_id;sensor_type;location;lat;lon;timestamp;temperature;humidity
37324;DHT22;23205;49.986;18.950;2023-02-10T00:02:13;-1.70;99.90
37324;DHT22;23205;49.986;18.950;2023-02-10T00:07:14;-1.90;99.90
37324;DHT22;23205;49.986;18.950;2023-02-10T00:12:15;-1.70;99.90
37324;DHT22;23205;49.986;18.950;2023-02-10T00:17:16;-1.70;99.90
37324;DHT22;23205;49.986;18.950;2023-02-10T00:22:17;-1.80;99.90
37324;DHT22;23205;49.986;18.950;2023-02-10T00:27:18;-1.80;99.90
37324;DHT22;23205;49.986;18.950;2023-02-10T00:32:23;-1.80;99.90
37324;DHT22;23205;49.986;18.950;2023-02-10T00:37:24;-1.70;99.90
37324;DHT22;23205;49.986;18.950;2023-02-10T00:42:26;-1.80;99.90
37324;DHT22;23205;49.986;18.950;2023-02-10T00:47:27;-1.70;99.90
37324;DHT22;23205;49.986;18.950;2023-02-10T00:52:28;-1.70;99.90
37324;DHT22;23205;49.986;18.950;2023-02-10T00:57:28;-1.70;99.90
37324;DHT22;23205;49.986;18.950;2023-02-10T01:02:29;-1.70;99.90
37324;DHT22;23205;49.986;18.950;2023-02-10T01:07:30;-1.80;99.90
37324;DHT22;23205;49.986;18.950;2023-02-10T01:12:31;-1.80;99.90
37324;DHT22;23205;49.986;18.950;2023-02-10T01:17:32;-1.90;99.90
37324;DHT22;23205;49.986;18.950;2023-02-10T01:22:33;-1.90;99.90
37324;DHT22;23205;49.986;18.950;2023-02-10T01:27:34;-1.80;99.90
37324;DHT22;23205;49.986;18.950;2023-02-10T01:32:35;-1.80;99.90
37324;DHT22;23205;49.986;18.950;2023-02-10T01:37:37;-1.80;99.90
37324;DHT22;23205;49.986;18.950;2023-02-10T01:42:38;-1.90;99.90
37324;DHT22;23205;49.986;18.950;2023-02-10T01:47:42;-1.90;99.90
37324;DHT22;23205;49.986;18.950;2023-02-10T01:52:44;-2.00;99.90
37324;DHT22;23205;49.986;18.950;2023-02-10T01:57:46;-1.90;99.90
37324;DHT22;23205;49.986;18.950;2023-02-10T02:02:49;-1.90;99.90
37324;DHT22;23205;49.986;18.950;2023-02-10T02:07:50;-1.90;99.90
37324;DHT22;23205;49.986;18.950;2023-02-10T02:13:07;-1.80;99.90
37324;DHT22;23205;49.986;18.950;2023-02-10T02:33:46;-2.00;99.90
37324;DHT22;23205;49.986;18.950;2023-02-10T02:38:49;-2.00;99.90
37324;DHT22;23205;49.986;18.950;2023-02-10T02:43:50;-2.10;99.90
37324;DHT22;23205;49.986;18.950;2023-02-10T03:04:49;-2.20;99.90
37324;DHT22;23205;49.986;18.950;2023-02-10T03:09:50;-2.30;99.90
37324;DHT22;23205;49.986;18.950;2023-02-10T03:14:51;-2.20;99.90
37324;DHT22;23205;49.986;18.950;2023-02-10T03:19:52;-2.30;99.90
37324;DHT22;23205;49.986;18.950;2023-02-10T03:24:53;-2.20;99.90
37324;DHT22;23205;49.986;18.950;2023-02-10T03:29:54;-2.20;99.90
37324;DHT22;23205;49.986;18.950;2023-02-10T03:34:54;-2.10;99.90
37324;DHT22;23205;49.986;18.950;2023-02-10T03:39:55;-2.10;99.90
37324;DHT22;23205;49.986;18.950;2023-02-10T03:44:56;-2.10;99.90
37324;DHT22;23205;49.986;18.950;2023-02-10T03:49:57;-2.20;99.90
37324;DHT22;23205;49.986;18.950;2023-02-10T03:54:58;-2.20;99.90
37324;DHT22;23205;49.986;18.950;2023-02-10T03:59:59;-2.30;99.90
37324;DHT22;23205;49.986;18.950;2023-02-10T04:05:00;-2.30;99.90
37324;DHT22;23205;49.986;18.950;2023-02-10T04:10:01;-2.30;99.90
37324;DHT22;23205;49.986;18.950;2023-02-10T04:15:02;-2.10;99.90
37324;DHT22;23205;49.986;18.950;2023-02-10T04:20:04;-2.30;99.90
37324;DHT22;23205;49.986;18.950;2023-02-10T04:25:05;-2.40;99.90
37324;DHT22;23205;49.986;18.950;2023-02-10T04:30:07;-2.40;99.90
37324;DHT22;23205;49.986;18.950;2023-02-10T04:35:08;-2.40;99.90
37324;DHT22;23205;49.986;18.950;2023-02-10T04:40:09;-2.40;99.90
37324;DHT22;23205;49.986;18.950;2023-02-10T04:45:10;-2.40;99.90
37324;DHT22;23205;49.986;18.950;2023-02-10T04:50:11;-2.50;99.90
37324;DHT22;23205;49.986;18.950;2023-02-10T04:55:12;-2.50;99.90
37324;DHT22;23205;49.986;18.950;2023-02-10T05:00:13;-2.40;99.90
37324;DHT22;23205;49.986;18.950;2023-02-10T05:05:14;-2.40;99.90
37324;DHT22;23205;49.986;18.950;2023-02-10T05:10:15;-2.40;99.90
37324;DHT22;23205;49.986;18.950;2023-02-10T05:15:16;-2.40;99.90
37324;DHT22;23205;49.986;18.950;2023-02-10T05:20:17;-2.40;99.90
37324;DHT22;23205;49.986;18.950;2023-02-10T05:25:18;-2.40;99.90
37324;DHT22;23205;49.986;18.950;2023-02-10T05:30:19;-2.40;99.90
37324;DHT22;23205;49.986;18.950;2023-02-10T05:35:20;-2.50;99.90
37324;DHT22;23205;49.986;18.950;2023-02-10T05:40:20;-2.50;99.90
37324;DHT22;23205;49.986;18.950;2023-02-10T05:45:22;-2.50;99.90
37324;DHT22;23205;49.986;18.950;2023-02-10T05:50:23;-2.50;99.90
37324;DHT22;23205;49.986;18.950;2023-02-10T05:55:24;-2.50;99.90
37324;DHT22;23205;49.986;18.950;2023-02-10T06:00:25;-2.50;99.90
37324;DHT22;23205;49.986;18.950;2023-02-10T06:05:26;-2.40;99.90
37324;DHT22;23205;49.986;18.950;2023-02-10T06:10:26;-2.50;99.90
37324;DHT22;23205;49.986;18.950;2023-02-10T06:15:27;-2.50;99.90
37324;DHT22;23205;49.986;18.950;2023-02-10T06:20:28;-2.40;99.90
37324;DHT22;23205;49.986;18.950;2023-02-10T06:25:29;-2.40;99.90
37324;DHT22;23205;49.986;18.950;2023-02-10T06:30:30;-2.40;99.90
37324;DHT22;23205;49.986;18.950;2023-02-10T06:35:31;-2.40;99.90
37324;DHT22;23205;49.986;18.950;2023-02-10T06:40:32;-2.30;99.90
37324;DHT22;23205;49.986;18.950;2023-02-10T06:45:32;-2.20;99.90
37324;DHT22;23205;49.986;18.950;2023-02-10T06:50:35;-2.10;99.90
37324;DHT22;23205;49.986;18.950;2023-02-10T06:55:36;-2.00;99.90
37324;DHT22;23205;49.986;18.950;2023-02-10T07:00:37;-2.00;99.90
37324;DHT22;23205;49.986;18.950;2023-02-10T07:05:38;-1.80;99.90
37324;DHT22;23205;49.986;18.950;2023-02-10T07:10:41;-1.70;99.90
37324;DHT22;23205;49.986;18.950;2023-02-10T07:15:41;-1.60;99.30
37324;DHT22;23205;49.986;18.950;2023-02-10T07:20:42;-1.50;98.60
37324;DHT22;23205;49.986;18.950;2023-02-10T07:25:43;-1.30;98.20
37324;DHT22;23205;49.986;18.950;2023-02-10T07:30:45;-1.00;96.10
37324;DHT22;23205;49.986;18.950;2023-02-10T07:35:46;-0.80;95.10
37324;DHT22;23205;49.986;18.950;2023-02-10T07:40:47;-0.60;93.50
37324;DHT22;23205;49.986;18.950;2023-02-10T07:45:48;-0.40;92.50
37324;DHT22;23205;49.986;18.950;2023-02-10T07:50:51;-0.30;91.80
37324;DHT22;23205;49.986;18.950;2023-02-10T07:55:52;-0.20;88.70
37324;DHT22;23205;49.986;18.950;2023-02-10T08:00:53;-0.10;87.60
37324;DHT22;23205;49.986;18.950;2023-02-10T08:05:53;0.10;86.60
37324;DHT22;23205;49.986;18.950;2023-02-10T08:10:54;0.40;85.80
37324;DHT22;23205;49.986;18.950;2023-02-10T08:15:55;0.60;82.40
37324;DHT22;23205;49.986;18.950;2023-02-10T08:20:59;0.60;79.90
37324;DHT22;23205;49.986;18.950;2023-02-10T08:26:08;0.40;79.30
37324;DHT22;23205;49.986;18.950;2023-02-10T08:31:10;0.70;79.00
37324;DHT22;23205;49.986;18.950;2023-02-10T08:36:13;0.80;76.40
37324;DHT22;23205;49.986;18.950;2023-02-10T08:41:14;0.90;76.30
37324;DHT22;23205;49.986;18.950;2023-02-10T08:46:15;1.10;76.70
37324;DHT22;23205;49.986;18.950;2023-02-10T08:51:16;1.10;76.00
37324;DHT22;23205;49.986;18.950;2023-02-10T08:56:17;1.30;73.70
37324;DHT22;23205;49.986;18.950;2023-02-10T09:01:21;1.30;73.10
37324;DHT22;23205;49.986;18.950;2023-02-10T09:06:25;2.00;73.00
37324;DHT22;23205;49.986;18.950;2023-02-10T09:11:27;1.50;70.90
37324;DHT22;23205;49.986;18.950;2023-02-10T09:16:28;2.20;71.90
37324;DHT22;23205;49.986;18.950;2023-02-10T09:21:29;2.40;69.40
37324;DHT22;23205;49.986;18.950;2023-02-10T09:26:30;2.40;68.30
37324;DHT22;23205;49.986;18.950;2023-02-10T09:31:31;2.30;68.10
37324;DHT22;23205;49.986;18.950;2023-02-10T09:36:34;2.80;67.80
37324;DHT22;23205;49.986;18.950;2023-02-10T09:52:29;4.00;63.10
37324;DHT22;23205;49.986;18.950;2023-02-10T09:58:42;3.60;62.40
37324;DHT22;23205;49.986;18.950;2023-02-10T10:03:18;3.60;62.30
37324;DHT22;23205;49.986;18.950;2023-02-10T10:08:34;4.10;63.30
37324;DHT22;23205;49.986;18.950;2023-02-10T10:13:36;5.50;60.80
37324;DHT22;23205;49.986;18.950;2023-02-10T10:18:54;5.70;58.30
37324;DHT22;23205;49.986;18.950;2023-02-10T10:34:48;6.70;55.40
37324;DHT22;23205;49.986;18.950;2023-02-10T10:40:00;6.40;56.80
37324;DHT22;23205;49.986;18.950;2023-02-10T10:45:35;7.30;55.00
37324;DHT22;23205;49.986;18.950;2023-02-10T10:50:36;9.10;50.80
37324;DHT22;23205;49.986;18.950;2023-02-10T10:55:51;8.80;51.30
37324;DHT22;23205;49.986;18.950;2023-02-10T11:00:56;8.10;51.10
37324;DHT22;23205;49.986;18.950;2023-02-10T11:11:01;7.10;52.40
37324;DHT22;23205;49.986;18.950;2023-02-10T11:16:06;7.60;52.20
37324;DHT22;23205;49.986;18.950;2023-02-10T11:21:10;7.20;53.80
37324;DHT22;23205;49.986;18.950;2023-02-10T11:26:22;7.40;53.30
37324;DHT22;23205;49.986;18.950;2023-02-10T11:36:40;6.30;56.60
37324;DHT22;23205;49.986;18.950;2023-02-10T11:41:41;5.60;58.00
37324;DHT22;23205;49.986;18.950;2023-02-10T11:46:42;5.70;57.80
37324;DHT22;23205;49.986;18.950;2023-02-10T11:51:55;5.00;59.30
37324;DHT22;23205;49.986;18.950;2023-02-10T12:44:08;4.20;67.30
37324;DHT22;23205;49.986;18.950;2023-02-10T12:54:50;4.30;67.30
37324;DHT22;23205;49.986;18.950;2023-02-10T12:59:58;4.00;69.30
37324;DHT22;23205;49.986;18.950;2023-02-10T13:05:05;4.00;70.60
37324;DHT22;23205;49.986;18.950;2023-02-10T13:10:29;5.00;67.80
37324;DHT22;23205;49.986;18.950;2023-02-10T13:15:41;5.60;64.80
37324;DHT22;23205;49.986;18.950;2023-02-10T13:26:09;4.40;66.50
37324;DHT22;23205;49.986;18.950;2023-02-10T13:36:36;4.80;68.20
37324;DHT22;23205;49.986;18.950;2023-02-10T13:41:45;5.60;65.30
37324;DHT22;23205;49.986;18.950;2023-02-10T13:46:58;6.30;64.80
37324;DHT22;23205;49.986;18.950;2023-02-10T13:52:21;4.80;65.10
37324;DHT22;23205;49.986;18.950;2023-02-10T13:57:36;4.30;68.20
37324;DHT22;23205;49.986;18.950;2023-02-10T14:02:40;4.10;69.70
37324;DHT22;23205;49.986;18.950;2023-02-10T14:07:41;4.20;70.50
37324;DHT22;23205;49.986;18.950;2023-02-10T14:18:19;4.70;68.90
37324;DHT22;23205;49.986;18.950;2023-02-10T14:23:21;5.00;67.60
37324;DHT22;23205;49.986;18.950;2023-02-10T14:28:29;5.10;67.70
37324;DHT22;23205;49.986;18.950;2023-02-10T14:33:34;4.40;69.30
37324;DHT22;23205;49.986;18.950;2023-02-10T14:38:35;4.00;71.40
37324;DHT22;23205;49.986;18.950;2023-02-10T14:43:36;4.00;72.00
37324;DHT22;23205;49.986;18.950;2023-02-10T14:48:39;4.00;73.60
37324;DHT22;23205;49.986;18.950;2023-02-10T14:53:40;4.00;74.90
37324;DHT22;23205;49.986;18.950;2023-02-10T14:58:45;3.90;75.80
37324;DHT22;23205;49.986;18.950;2023-02-10T15:03:46;3.90;77.80
37324;DHT22;23205;49.986;18.950;2023-02-10T15:09:04;3.80;78.10
37324;DHT22;23205;49.986;18.950;2023-02-10T15:14:09;3.70;79.00
37324;DHT22;23205;49.986;18.950;2023-02-10T15:19:15;3.90;79.60
37324;DHT22;23205;49.986;18.950;2023-02-10T15:29:20;2.90;85.10
37324;DHT22;23205;49.986;18.950;2023-02-10T15:34:30;2.90;85.90
37324;DHT22;23205;49.986;18.950;2023-02-10T15:39:34;2.80;89.40
37324;DHT22;23205;49.986;18.950;2023-02-10T15:44:42;2.70;90.60
37324;DHT22;23205;49.986;18.950;2023-02-10T15:49:51;2.80;90.70
37324;DHT22;23205;49.986;18.950;2023-02-10T15:54:56;2.60;90.70
37324;DHT22;23205;49.986;18.950;2023-02-10T15:59:58;2.40;91.80
37324;DHT22;23205;49.986;18.950;2023-02-10T16:04:59;2.40;92.50
37324;DHT22;23205;49.986;18.950;2023-02-10T16:10:00;2.30;92.70
37324;DHT22;23205;49.986;18.950;2023-02-10T16:15:04;2.30;93.30
37324;DHT22;23205;49.986;18.950;2023-02-10T16:20:05;2.30;93.90
37324;DHT22;23205;49.986;18.950;2023-02-10T16:25:07;2.20;94.70
37324;DHT22;23205;49.986;18.950;2023-02-10T16:30:20;2.70;95.10
37324;DHT22;23205;49.986;18.950;2023-02-10T16:35:23;2.30;95.60
37324;DHT22;23205;49.986;18.950;2023-02-10T16:40:44;2.30;95.90
37324;DHT22;23205;49.986;18.950;2023-02-10T16:45:45;2.20;96.30
37324;DHT22;23205;49.986;18.950;2023-02-10T16:50:46;2.10;97.60
37324;DHT22;23205;49.986;18.950;2023-02-10T16:55:47;2.20;97.50
37324;DHT22;23205;49.986;18.950;2023-02-10T17:00:48;2.10;97.60
37324;DHT22;23205;49.986;18.950;2023-02-10T17:05:49;2.10;98.60
37324;DHT22;23205;49.986;18.950;2023-02-10T17:10:51;2.10;98.80
37324;DHT22;23205;49.986;18.950;2023-02-10T17:15:52;2.00;99.30
37324;DHT22;23205;49.986;18.950;2023-02-10T17:20:54;2.00;99.50
37324;DHT22;23205;49.986;18.950;2023-02-10T17:25:55;1.90;99.80
37324;DHT22;23205;49.986;18.950;2023-02-10T17:30:55;2.00;99.90
37324;DHT22;23205;49.986;18.950;2023-02-10T17:35:56;1.80;99.90
37324;DHT22;23205;49.986;18.950;2023-02-10T17:40:57;1.90;99.90
37324;DHT22;23205;49.986;18.950;2023-02-10T17:45:58;1.80;99.90
37324;DHT22;23205;49.986;18.950;2023-02-10T17:51:04;1.80;99.90
37324;DHT22;23205;49.986;18.950;2023-02-10T17:56:06;1.70;99.90
37324;DHT22;23205;49.986;18.950;2023-02-10T18:01:18;1.70;99.90
37324;DHT22;23205;49.986;18.950;2023-02-10T18:06:20;1.80;99.90
37324;DHT22;23205;49.986;18.950;2023-02-10T18:11:22;1.60;99.90
37324;DHT22;23205;49.986;18.950;2023-02-10T18:16:23;1.70;99.90
37324;DHT22;23205;49.986;18.950;2023-02-10T18:21:24;1.60;99.90
37324;DHT22;23205;49.986;18.950;2023-02-10T18:26:25;1.60;99.90
37324;DHT22;23205;49.986;18.950;2023-02-10T18:31:27;1.60;99.90
37324;DHT22;23205;49.986;18.950;2023-02-10T18:36:31;1.60;99.90
37324;DHT22;23205;49.986;18.950;2023-02-10T18:41:34;1.50;99.90
37324;DHT22;23205;49.986;18.950;2023-02-10T18:46:35;1.60;99.90
37324;DHT22;23205;49.986;18.950;2023-02-10T18:51:36;1.60;99.90
37324;DHT22;23205;49.986;18.950;2023-02-10T18:56:40;1.60;99.90
37324;DHT22;23205;49.986;18.950;2023-02-10T19:01:41;1.60;99.90
37324;DHT22;23205;49.986;18.950;2023-02-10T19:06:43;1.60;99.90
37324;DHT22;23205;49.986;18.950;2023-02-10T19:11:44;1.60;99.90
37324;DHT22;23205;49.986;18.950;2023-02-10T19:16:45;1.60;99.90
37324;DHT22;23205;49.986;18.950;2023-02-10T19:21:51;1.70;99.90
37324;DHT22;23205;49.986;18.950;2023-02-10T19:26:57;1.70;99.90
37324;DHT22;23205;49.986;18.950;2023-02-10T19:31:58;1.50;99.90
37324;DHT22;23205;49.986;18.950;2023-02-10T19:36:59;1.60;99.90
37324;DHT22;23205;49.986;18.950;2023-02-10T19:42:00;1.50;99.90
37324;DHT22;23205;49.986;18.950;2023-02-10T19:47:02;1.40;99.90
37324;DHT22;23205;49.986;18.950;2023-02-10T19:52:03;1.40;99.90
37324;DHT22;23205;49.986;18.950;2023-02-10T19:57:04;1.30;99.90
37324;DHT22;23205;49.986;18.950;2023-02-10T20:02:05;1.20;99.90
37324;DHT22;23205;49.986;18.950;2023-02-10T20:07:06;1.00;99.90
37324;DHT22;23205;49.986;18.950;2023-02-10T20:12:07;0.80;99.90
37324;DHT22;23205;49.986;18.950;2023-02-10T20:17:08;0.70;99.90
37324;DHT22;23205;49.986;18.950;2023-02-10T20:22:09;0.60;99.90
37324;DHT22;23205;49.986;18.950;2023-02-10T20:27:10;0.40;99.90
37324;DHT22;23205;49.986;18.950;2023-02-10T20:32:11;0.40;99.90
37324;DHT22;23205;49.986;18.950;2023-02-10T20:37:12;0.30;99.90
37324;DHT22;23205;49.986;18.950;2023-02-10T20:42:13;0.20;99.90
37324;DHT22;23205;49.986;18.950;2023-02-10T20:47:13;0.20;99.90
37324;DHT22;23205;49.986;18.950;2023-02-10T20:52:14;0.20;99.90
37324;DHT22;23205;49.986;18.950;2023-02-10T20:57:15;0.20;99.90
37324;DHT22;23205;49.986;18.950;2023-02-10T21:02:16;0.10;99.90
37324;DHT22;23205;49.986;18.950;2023-02-10T21:07:17;0.00;99.90
37324;DHT22;23205;49.986;18.950;2023-02-10T21:12:18;-0.10;99.90
37324;DHT22;23205;49.986;18.950;2023-02-10T21:17:19;-0.10;99.90
37324;DHT22;23205;49.986;18.950;2023-02-10T21:22:20;-0.10;99.90
37324;DHT22;23205;49.986;18.950;2023-02-10T21:27:21;-0.10;99.90
37324;DHT22;23205;49.986;18.950;2023-02-10T21:32:22;-0.20;99.90
37324;DHT22;23205;49.986;18.950;2023-02-10T21:37:23;-0.20;99.90
37324;DHT22;23205;49.986;18.950;2023-02-10T21:42:24;-0.20;99.90
37324;DHT22;23205;49.986;18.950;2023-02-10T21:47:25;-0.20;99.90
37324;DHT22;23205;49.986;18.950;2023-02-10T21:52:26;-0.30;99.90
37324;DHT22;23205;49.986;18.950;2023-02-10T21:57:26;-1.00;99.90
37324;DHT22;23205;49.986;18.950;2023-02-10T22:02:27;-0.30;99.90
37324;DHT22;23205;49.986;18.950;2023-02-10T22:07:28;-0.40;99.90
37324;DHT22;23205;49.986;18.950;2023-02-10T22:12:29;-0.40;99.90
37324;DHT22;23205;49.986;18.950;2023-02-10T22:17:30;-0.50;99.90
37324;DHT22;23205;49.986;18.950;2023-02-10T22:22:31;-0.60;99.90
37324;DHT22;23205;49.986;18.950;2023-02-10T22:27:32;-0.50;99.90
37324;DHT22;23205;49.986;18.950;2023-02-10T22:32:33;-0.60;99.90
37324;DHT22;23205;49.986;18.950;2023-02-10T22:37:34;-0.60;99.90
37324;DHT22;23205;49.986;18.950;2023-02-10T22:42:35;-0.70;99.90
37324;DHT22;23205;49.986;18.950;2023-02-10T22:47:36;-0.70;99.90
37324;DHT22;23205;49.986;18.950;2023-02-10T22:52:36;-0.70;99.90
37324;DHT22;23205;49.986;18.950;2023-02-10T22:57:38;-0.70;99.90
37324;DHT22;23205;49.986;18.950;2023-02-10T23:02:39;-0.80;99.90
37324;DHT22;23205;49.986;18.950;2023-02-10T23:07:43;-0.80;99.90
37324;DHT22;23205;49.986;18.950;2023-02-10T23:12:44;-0.90;99.90
37324;DHT22;23205;49.986;18.950;2023-02-10T23:17:45;-1.00;99.90
37324;DHT22;23205;49.986;18.950;2023-02-10T23:22:46;-1.00;99.90
37324;DHT22;23205;49.986;18.950;2023-02-10T23:27:47;-1.10;99.90
37324;DHT22;23205;49.986;18.950;2023-02-10T23:32:48;-1.00;99.90
37324;DHT22;23205;49.986;18.950;2023-02-10T23:37:48;-1.00;99.90
37324;DHT22;23205;49.986;18.950;2023-02-10T23:42:49;-1.00;99.90
37324;DHT22;23205;49.986;18.950;2023-02-10T23:47:50;-1.00;99.90
37324;DHT22;23205;49.986;18.950;2023-02-10T23:52:51;-1.10;99.90
37324;DHT22;23205;49.986;18.950;2023-02-10T23:57:52;-1.00;99.90
